createdAt,value
2022-12-11T00:03:46.097Z,32.7056856187291
2022-12-11T00:10:16.555Z,32.374581939799334
2022-12-11T00:16:49.901Z,32.96655518394649
2022-12-11T00:23:28.126Z,33.56521739130435
2022-12-11T00:32:28.756Z,34.63879598662207
2022-12-11T00:46:26.314Z,33.297658862876254
2022-12-11T00:57:32.364Z,33.197324414715716
2022-12-11T01:06:32.033Z,34.836120401337794
2022-12-11T01:12:58.653Z,33.324414715719065
2022-12-11T01:21:45.819Z,32.96321070234114
2022-12-11T01:32:48.723Z,32.35451505016722
2022-12-11T01:39:13.015Z,32.22742474916388
2022-12-11T01:45:40.128Z,32.18394648829432
2022-12-11T01:52:05.128Z,32.08695652173913
2022-12-11T01:58:30.309Z,32.79933110367893
2022-12-11T02:06:13.108Z,33.32775919732441
2022-12-11T02:14:49.677Z,33.48829431438127
2022-12-11T02:21:14.435Z,32.41137123745819
2022-12-11T02:27:39.468Z,31.665551839464882
2022-12-11T02:34:11.882Z,32.9933110367893
2022-12-11T02:40:38.955Z,31.26086956521739
2022-12-11T02:47:03.914Z,32.72240802675585
2022-12-11T02:53:29.004Z,33.37123745819398
2022-12-11T02:59:54.129Z,32.88963210702341
2022-12-11T03:15:22.590Z,32.986622073578594
2022-12-11T03:29:29.969Z,35.17391304347826
2022-12-11T03:35:55.445Z,34.37123745819398
2022-12-11T03:43:35.784Z,34.69565217391305
2022-12-11T03:50:14.011Z,34.448160535117054
2022-12-11T03:56:39.531Z,34.01672240802676
2022-12-11T04:03:13.019Z,35.16053511705686
2022-12-11T04:09:39.775Z,35.77591973244147
2022-12-11T04:16:06.391Z,35.49498327759197
2022-12-11T04:22:31.732Z,34.414715719063544
2022-12-11T04:28:57.480Z,35.42809364548495
2022-12-11T04:35:24.776Z,36.00334448160535
2022-12-11T04:41:51.022Z,35.625418060200666
2022-12-11T04:54:47.072Z,33.65217391304348
2022-12-11T05:01:14.365Z,34.642140468227424
2022-12-11T05:07:40.177Z,34.247491638795985
2022-12-11T05:14:06.091Z,32.92307692307692
2022-12-11T05:23:15.817Z,33.635451505016725
2022-12-11T05:29:42.383Z,33.675585284280935
2022-12-11T05:36:08.890Z,34.47826086956522
2022-12-11T05:42:35.087Z,35.08361204013378
2022-12-11T05:49:01.502Z,35.280936454849495
2022-12-11T05:59:25.856Z,33.020066889632105
2022-12-11T06:09:21.947Z,33.28428093645485
2022-12-11T06:15:48.311Z,34.20066889632107
2022-12-11T06:28:13.245Z,33.20401337792642
2022-12-11T06:34:38.892Z,32.819397993311036
2022-12-11T06:41:05.067Z,32.19063545150502
2022-12-11T06:47:30.596Z,31.05016722408027
2022-12-11T06:54:56.720Z,32.792642140468224
2022-12-11T07:01:22.802Z,31.00334448160535
2022-12-11T07:07:48.304Z,30.377926421404684
2022-12-11T07:18:44.203Z,30.180602006688964
2022-12-11T07:25:13.671Z,31.39464882943144
2022-12-11T07:32:31.792Z,30.02675585284281
2022-12-11T07:39:01.151Z,30.62541806020067
2022-12-11T07:45:26.855Z,31.792642140468228
2022-12-11T07:51:52.072Z,31.093645484949832
2022-12-11T07:58:17.836Z,31.307692307692307
2022-12-11T08:08:50.653Z,47.97658862876254
2022-12-11T08:15:29.801Z,33.0
2022-12-11T08:22:00.258Z,42.51839464882943
2022-12-11T08:28:35.928Z,42.93979933110368
2022-12-11T08:35:19.827Z,38.64548494983278
2022-12-11T08:41:54.523Z,31.254180602006688
2022-12-11T08:48:29.171Z,31.732441471571907
2022-12-11T09:01:27.300Z,33.47826086956522
2022-12-11T09:08:34.791Z,34.03010033444816
2022-12-11T09:21:29.889Z,64.03344481605352
2022-12-11T09:30:51.058Z,34.73913043478261
2022-12-11T09:37:23.448Z,33.8561872909699
2022-12-11T09:44:25.783Z,38.852842809364546
2022-12-11T09:52:20.294Z,32.51839464882943
2022-12-11T10:02:57.601Z,33.97658862876254
2022-12-11T10:09:27.175Z,34.31772575250836
2022-12-11T10:15:58.202Z,34.66555183946488
2022-12-11T10:22:33.407Z,33.94983277591973
2022-12-11T10:34:03.841Z,33.88628762541806
2022-12-11T10:40:34.615Z,33.20401337792642
2022-12-11T10:48:45.464Z,33.89297658862876
2022-12-11T10:55:11.331Z,34.94648829431438
2022-12-11T11:02:47.819Z,34.575250836120404
2022-12-11T11:09:16.752Z,33.88628762541806
2022-12-11T11:15:44.918Z,35.374581939799334
2022-12-11T11:22:13.340Z,36.491638795986624
2022-12-11T11:46:32.856Z,35.214046822742475
2022-12-11T11:52:59.916Z,36.31772575250836
2022-12-11T12:02:57.117Z,36.84615384615385
2022-12-11T12:09:25.706Z,37.23745819397993
2022-12-11T12:15:54.885Z,39.381270903010034
2022-12-11T12:24:50.263Z,39.33779264214047
2022-12-11T12:31:21.933Z,37.862876254180605
2022-12-11T12:37:49.645Z,38.30434782608695
2022-12-11T12:49:16.877Z,37.525083612040135
2022-12-11T12:58:58.316Z,37.96655518394649
2022-12-11T13:05:51.905Z,38.37123745819398
2022-12-11T13:17:00.886Z,40.74247491638796
2022-12-11T13:24:33.429Z,40.60200668896321
2022-12-11T13:34:17.755Z,41.30100334448161
2022-12-11T13:40:43.602Z,40.54515050167224
2022-12-11T13:47:10.825Z,42.27090301003344
2022-12-11T13:53:37.811Z,42.98996655518395
2022-12-11T14:00:06.025Z,41.38795986622073
2022-12-11T14:06:31.230Z,42.7324414715719
2022-12-11T14:12:57.757Z,49.09030100334448
2022-12-11T14:19:24.663Z,48.31438127090301
2022-12-11T14:25:50.455Z,43.25752508361204
2022-12-11T14:32:16.455Z,43.65217391304348
2022-12-11T14:43:35.320Z,43.95986622073578
2022-12-11T14:51:43.770Z,44.130434782608695
2022-12-11T14:58:10.340Z,44.903010033444815
2022-12-11T15:04:37.595Z,44.2876254180602
2022-12-11T15:13:31.451Z,43.46153846153846
2022-12-11T15:22:28.230Z,43.58862876254181
2022-12-11T15:28:53.549Z,42.81605351170568
2022-12-11T15:35:26.851Z,42.5819397993311
2022-12-11T15:42:56.472Z,43.88963210702341
2022-12-11T15:55:17.496Z,49.36120401337793
2022-12-11T16:01:42.591Z,44.735785953177256
2022-12-11T16:12:08.970Z,45.79933110367893
2022-12-11T16:25:07.487Z,47.31103678929766
2022-12-11T16:37:22.963Z,46.83277591973244
2022-12-11T16:43:48.988Z,47.75585284280937
2022-12-11T17:00:07.452Z,50.17725752508361
2022-12-11T17:08:03.877Z,50.448160535117054
2022-12-11T17:14:36.346Z,50.812709030100336
2022-12-11T17:21:03.225Z,53.73913043478261
2022-12-11T17:27:29.164Z,53.424749163879596
2022-12-11T17:33:55.479Z,50.34448160535117
2022-12-11T17:41:29.127Z,50.33444816053512
2022-12-11T17:47:54.303Z,49.92307692307692
2022-12-11T18:12:29.837Z,55.2943143812709
2022-12-11T18:19:10.438Z,60.88294314381271
2022-12-11T18:25:39.266Z,71.06688963210702
2022-12-11T18:32:08.518Z,69.66889632107024
2022-12-11T18:38:33.870Z,61.03344481605351
2022-12-11T18:44:59.789Z,59.08695652173913
2022-12-11T18:51:27.429Z,60.52173913043478
2022-12-11T18:57:56.827Z,60.137123745819395
2022-12-11T19:04:23.615Z,60.20066889632107
2022-12-11T19:10:49.394Z,60.324414715719065
2022-12-11T19:23:52.313Z,64.64214046822742
2022-12-11T19:30:22.730Z,72.21404682274247
2022-12-11T20:55:46.531Z,75.5351170568562
2022-12-11T20:59:03.473Z,64.64214046822742
2022-12-11T21:06:36.421Z,68.32441471571906
2022-12-11T21:13:23.581Z,64.7123745819398
2022-12-11T21:23:07.013Z,68.96989966555184
2022-12-11T21:29:28.315Z,66.96655518394648
2022-12-11T21:35:49.663Z,67.78260869565217
2022-12-11T21:42:12.789Z,66.4448160535117
2022-12-11T21:48:35.545Z,66.95986622073579
2022-12-11T21:54:54.628Z,66.7324414715719
2022-12-11T22:01:18.585Z,67.54515050167224
2022-12-11T22:07:40.586Z,63.50501672240803
2022-12-11T22:18:35.325Z,59.59531772575251
2022-12-11T22:25:39.439Z,58.39799331103679
2022-12-11T22:34:56.098Z,59.19397993311037
2022-12-11T22:41:22.166Z,58.98996655518395
2022-12-11T22:47:42.531Z,58.57190635451505
2022-12-11T22:54:03.546Z,60.31438127090301
2022-12-11T23:00:24.419Z,58.65551839464883
2022-12-11T23:06:45.102Z,60.785953177257525
2022-12-11T23:18:31.796Z,61.163879598662206
2022-12-11T23:24:52.902Z,60.2675585284281
2022-12-11T23:34:24.663Z,58.364548494983275
2022-12-11T23:40:43.892Z,58.82943143812709
2022-12-11T23:50:54.098Z,57.91638795986622
